Time;durP1;ratioP1;P1;durP2;ratioP2;P2;SDS_P1;SDS_P2;PMS_P1;PMS_P2;Temp;Humidity;BMP_temperature;BMP_pressure;BME280_temperature;BME280_humidity;BME280_pressure;Samples;Min_cycle;Max_cycle;Signal;HPM_P1;HPM_P2
2023/04/26 00:00:22;;;;;;;7.65;1.35;;;6.60;99.90;;;;;;5093968;28;20119;-84
2023/04/26 00:02:48;;;;;;;6.78;1.80;;;6.60;99.90;;;;;;5094007;28;20093;-83
2023/04/26 00:05:15;;;;;;;9.07;2.15;;;6.60;99.90;;;;;;5093815;28;20089;-83
2023/04/26 00:07:41;;;;;;;6.43;1.83;;;6.60;99.90;;;;;;5093384;28;20062;-84
2023/04/26 00:10:08;;;;;;;8.07;2.25;;;6.50;99.90;;;;;;5093801;28;20371;-84
2023/04/26 00:12:35;;;;;;;11.88;2.58;;;6.50;99.90;;;;;;5093805;28;20040;-84
2023/04/26 00:15:00;;;;;;;6.35;2.20;;;6.60;99.90;;;;;;5093477;28;20036;-83
2023/04/26 00:17:26;;;;;;;7.75;1.77;;;6.50;99.90;;;;;;5093629;28;20471;-83
2023/04/26 00:19:52;;;;;;;6.93;1.60;;;6.50;99.90;;;;;;5093419;28;20044;-83
2023/04/26 00:22:17;;;;;;;5.05;1.15;;;6.60;99.90;;;;;;5092532;28;20059;-84
2023/04/26 00:24:43;;;;;;;5.45;1.70;;;6.60;99.90;;;;;;5092122;28;20056;-84
2023/04/26 00:27:11;;;;;;;16.58;1.77;;;6.40;99.90;;;;;;5093611;28;20051;-83
2023/04/26 00:29:37;;;;;;;5.78;1.42;;;6.40;99.90;;;;;;5093528;28;20048;-84
2023/04/26 00:32:03;;;;;;;4.70;1.45;;;6.40;99.90;;;;;;5093533;28;20052;-84
2023/04/26 00:34:33;;;;;;;7.55;1.67;;;6.40;99.90;;;;;;5093215;28;20093;-83
2023/04/26 00:36:58;;;;;;;11.45;2.08;;;6.40;99.90;;;;;;5093530;28;20095;-83
2023/04/26 00:39:24;;;;;;;8.70;2.30;;;6.40;99.90;;;;;;5093677;28;20084;-84
2023/04/26 00:41:50;;;;;;;6.07;1.92;;;6.40;99.90;;;;;;5093421;28;20503;-84
2023/04/26 00:44:15;;;;;;;4.05;0.73;;;6.50;99.90;;;;;;5093158;28;20127;-83
2023/04/26 00:46:41;;;;;;;4.63;1.27;;;6.50;99.90;;;;;;5093338;28;20086;-84
2023/04/26 00:49:07;;;;;;;9.00;1.02;;;6.50;99.90;;;;;;5093301;28;20036;-84
2023/04/26 00:51:35;;;;;;;6.60;0.90;;;6.60;99.90;;;;;;5093206;28;20052;-83
2023/04/26 00:54:00;;;;;;;8.40;1.58;;;6.60;99.90;;;;;;5093605;28;20080;-83
2023/04/26 00:56:26;;;;;;;4.03;0.80;;;6.60;99.90;;;;;;5092654;28;20102;-84
2023/04/26 00:58:52;;;;;;;6.30;1.10;;;6.50;99.90;;;;;;5093350;28;20040;-84
2023/04/26 01:01:18;;;;;;;9.27;1.92;;;6.50;99.90;;;;;;5093288;28;20048;-83
2023/04/26 01:03:45;;;;;;;5.68;1.52;;;6.60;99.90;;;;;;5092917;28;20044;-84
2023/04/26 01:06:11;;;;;;;6.22;1.13;;;6.50;99.90;;;;;;5093274;28;20066;-83
2023/04/26 01:08:37;;;;;;;6.03;1.88;;;6.60;99.90;;;;;;5093050;28;20484;-83
2023/04/26 01:11:03;;;;;;;5.40;1.40;;;6.60;99.90;;;;;;5091814;28;20056;-83
2023/04/26 01:13:31;;;;;;;5.28;1.05;;;6.60;99.90;;;;;;5093207;28;20036;-83
2023/04/26 01:15:58;;;;;;;7.25;1.30;;;6.60;99.90;;;;;;5093238;28;20056;-84
2023/04/26 01:18:24;;;;;;;6.22;1.02;;;6.60;99.90;;;;;;5091791;28;20083;-83
2023/04/26 01:20:51;;;;;;;6.07;1.15;;;6.60;99.90;;;;;;5096943;28;20071;-84
2023/04/26 01:23:17;;;;;;;5.60;1.77;;;6.60;99.90;;;;;;5096755;28;20056;-84
2023/04/26 01:25:45;;;;;;;5.25;1.20;;;6.50;99.90;;;;;;5096975;28;20360;-84
2023/04/26 01:28:11;;;;;;;5.45;1.02;;;6.60;99.90;;;;;;5096930;28;20040;-83
2023/04/26 01:30:36;;;;;;;7.63;1.33;;;6.60;99.90;;;;;;5096402;28;20044;-83
2023/04/26 01:33:02;;;;;;;8.65;1.38;;;6.60;99.90;;;;;;5095633;28;20387;-83
2023/04/26 01:35:28;;;;;;;8.60;1.30;;;6.60;99.90;;;;;;5096520;28;20113;-83
2023/04/26 01:37:53;;;;;;;4.97;1.17;;;6.50;99.90;;;;;;5096709;28;20040;-83
2023/04/26 01:40:19;;;;;;;5.43;1.27;;;6.50;99.90;;;;;;5096645;28;20479;-85
2023/04/26 01:42:44;;;;;;;6.43;1.20;;;6.60;99.90;;;;;;5096615;28;20135;-84
2023/04/26 01:45:10;;;;;;;6.07;1.35;;;6.60;99.90;;;;;;5095301;28;20044;-84
2023/04/26 01:47:36;;;;;;;5.95;1.42;;;6.60;99.90;;;;;;5096470;28;20036;-84
2023/04/26 01:50:02;;;;;;;7.88;1.17;;;6.60;99.90;;;;;;5096444;28;20063;-84
2023/04/26 01:52:27;;;;;;;5.47;1.60;;;6.60;99.90;;;;;;5096224;28;20544;-84
2023/04/26 01:54:53;;;;;;;8.52;2.05;;;6.70;99.90;;;;;;5096345;28;20051;-84
2023/04/26 01:57:19;;;;;;;3.80;1.38;;;6.70;99.90;;;;;;5096258;28;20048;-84
2023/04/26 01:59:45;;;;;;;5.18;1.00;;;6.60;99.90;;;;;;5094649;28;20055;-84
2023/04/26 02:02:11;;;;;;;5.00;1.10;;;6.50;99.90;;;;;;5096228;28;20036;-84
2023/04/26 02:04:36;;;;;;;5.05;1.13;;;6.50;99.90;;;;;;5095906;28;20058;-83
2023/04/26 02:07:02;;;;;;;9.07;1.33;;;6.50;99.90;;;;;;5096095;28;20472;-83
2023/04/26 02:09:27;;;;;;;7.03;2.10;;;6.40;99.90;;;;;;5094597;28;20131;-83
2023/04/26 02:11:53;;;;;;;5.30;1.45;;;6.40;99.90;;;;;;5096056;28;20052;-83
2023/04/26 02:14:19;;;;;;;4.32;1.30;;;6.50;99.90;;;;;;5095961;28;20040;-84
2023/04/26 02:16:44;;;;;;;4.40;1.10;;;6.50;99.90;;;;;;5095746;28;20123;-84
2023/04/26 02:19:10;;;;;;;3.55;1.10;;;6.50;99.90;;;;;;5095887;28;20046;-84
2023/04/26 02:21:53;;;;;;;3.90;1.00;;;6.40;99.90;;;;;;5095903;28;20195;-84
2023/04/26 02:24:20;;;;;;;2.92;1.05;;;6.30;99.90;;;;;;5095665;28;20058;-84
2023/04/26 02:26:46;;;;;;;10.25;1.70;;;6.30;99.90;;;;;;5094397;28;20503;-85
2023/04/26 02:29:11;;;;;;;9.13;1.88;;;6.20;99.90;;;;;;5095481;28;20032;-84
2023/04/26 02:31:37;;;;;;;9.90;1.15;;;6.20;99.90;;;;;;5094992;28;20169;-84
2023/04/26 02:34:02;;;;;;;5.97;1.33;;;6.20;99.90;;;;;;5094495;28;20502;-84
2023/04/26 02:36:28;;;;;;;7.32;1.38;;;6.30;99.90;;;;;;5095645;28;20051;-84
2023/04/26 02:38:54;;;;;;;2.45;0.80;;;6.40;99.90;;;;;;5095493;28;20388;-83
2023/04/26 02:41:20;;;;;;;7.03;1.25;;;6.40;99.90;;;;;;5095673;28;20043;-84
2023/04/26 02:43:46;;;;;;;7.70;2.17;;;6.30;99.90;;;;;;5095359;28;20063;-84
2023/04/26 02:46:12;;;;;;;7.22;1.35;;;6.30;99.90;;;;;;5095483;28;20040;-85
2023/04/26 02:48:37;;;;;;;5.78;1.83;;;6.20;99.90;;;;;;5095368;28;20044;-84
2023/04/26 02:51:03;;;;;;;3.05;0.82;;;6.20;99.90;;;;;;5095204;28;20036;-84
2023/04/26 02:53:28;;;;;;;9.65;1.85;;;6.20;99.90;;;;;;5094103;28;20518;-84
2023/04/26 02:55:54;;;;;;;6.10;1.20;;;6.20;99.90;;;;;;5095181;28;20395;-83
2023/04/26 02:58:20;;;;;;;5.70;1.45;;;6.20;99.90;;;;;;5094805;28;20186;-84
2023/04/26 03:00:48;;;;;;;5.10;1.70;;;6.10;99.90;;;;;;5095345;28;20055;-84
2023/04/26 03:03:14;;;;;;;3.45;1.13;;;6.10;99.90;;;;;;5095021;28;20040;-84
2023/04/26 03:05:43;;;;;;;5.05;1.10;;;6.10;99.90;;;;;;5094955;28;20063;-84
2023/04/26 03:08:08;;;;;;;4.38;0.85;;;6.10;99.90;;;;;;5094901;28;20040;-84
2023/04/26 03:10:34;;;;;;;5.18;1.65;;;6.20;99.90;;;;;;5093532;28;20074;-84
2023/04/26 03:13:00;;;;;;;5.45;1.50;;;6.20;99.90;;;;;;5094790;28;20123;-84
2023/04/26 03:15:25;;;;;;;3.72;1.02;;;6.30;99.90;;;;;;5094674;28;20051;-84
2023/04/26 03:17:51;;;;;;;4.22;1.20;;;6.20;99.90;;;;;;5093670;28;20139;-84
2023/04/26 03:20:16;;;;;;;6.25;1.50;;;6.20;99.90;;;;;;5094589;28;20517;-84
2023/04/26 03:22:45;;;;;;;3.53;1.23;;;6.10;99.90;;;;;;5094310;28;20040;-84
2023/04/26 03:25:15;;;;;;;4.35;1.38;;;6.10;99.90;;;;;;5094654;28;20086;-84
2023/04/26 03:27:40;;;;;;;3.92;1.30;;;6.10;99.90;;;;;;5093394;28;20105;-84
2023/04/26 03:30:07;;;;;;;8.35;2.63;;;6.10;99.90;;;;;;5094293;28;20043;-84
2023/04/26 03:32:32;;;;;;;6.72;1.58;;;6.10;99.90;;;;;;5094552;28;20040;-84
2023/04/26 03:34:58;;;;;;;8.20;1.38;;;6.20;99.90;;;;;;5094488;28;20040;-83
2023/04/26 03:37:24;;;;;;;5.35;1.45;;;6.10;99.90;;;;;;5094373;28;20395;-84
2023/04/26 03:39:51;;;;;;;6.88;2.63;;;6.10;99.90;;;;;;5093156;28;20044;-84
2023/04/26 03:42:17;;;;;;;3.92;1.02;;;6.00;99.90;;;;;;5093710;28;20059;-84
2023/04/26 03:44:42;;;;;;;6.22;1.95;;;5.90;99.90;;;;;;5094253;28;20102;-84
2023/04/26 03:47:08;;;;;;;6.03;1.15;;;6.00;99.90;;;;;;5093250;28;20059;-84
2023/04/26 03:49:33;;;;;;;9.18;1.70;;;6.00;99.90;;;;;;5092694;28;20403;-84
2023/04/26 03:51:59;;;;;;;8.80;1.70;;;5.90;99.90;;;;;;5094130;28;20040;-84
2023/04/26 03:54:25;;;;;;;6.10;1.27;;;5.90;99.90;;;;;;5092822;28;20048;-84
2023/04/26 03:56:50;;;;;;;4.88;1.23;;;6.00;99.90;;;;;;5093780;28;20070;-83
2023/04/26 03:59:16;;;;;;;4.00;1.00;;;6.10;99.90;;;;;;5093757;28;20479;-85
2023/04/26 04:01:41;;;;;;;8.35;1.77;;;6.20;99.90;;;;;;5092616;28;20036;-84
2023/04/26 04:04:08;;;;;;;8.80;1.13;;;6.30;99.90;;;;;;5093965;28;20040;-84
2023/04/26 04:06:34;;;;;;;5.35;1.58;;;6.30;99.90;;;;;;5093740;28;20467;-84
2023/04/26 04:08:59;;;;;;;9.07;1.52;;;6.20;99.90;;;;;;5093713;28;20096;-84
2023/04/26 04:11:25;;;;;;;6.15;1.55;;;6.10;99.90;;;;;;5093608;28;20344;-84
2023/04/26 04:13:51;;;;;;;6.68;1.67;;;6.10;99.90;;;;;;5092388;28;20051;-84
2023/04/26 04:16:16;;;;;;;5.50;1.45;;;6.00;99.90;;;;;;5092735;28;20474;-84
2023/04/26 04:18:42;;;;;;;6.13;1.58;;;6.00;99.90;;;;;;5093623;28;20456;-84
2023/04/26 04:21:08;;;;;;;5.68;1.55;;;6.00;99.90;;;;;;5092069;28;20071;-84
2023/04/26 04:23:35;;;;;;;2.88;1.20;;;6.00;99.90;;;;;;5093052;28;20097;-84
2023/04/26 04:26:02;;;;;;;7.15;1.60;;;6.10;99.90;;;;;;5093537;28;20044;-84
2023/04/26 04:28:28;;;;;;;6.20;1.40;;;6.00;99.90;;;;;;5092120;28;20135;-84
2023/04/26 04:30:55;;;;;;;5.25;1.67;;;6.00;99.90;;;;;;5093471;28;20059;-84
2023/04/26 04:33:21;;;;;;;3.78;1.48;;;6.00;99.90;;;;;;5093401;28;20048;-84
2023/04/26 04:35:47;;;;;;;7.18;1.55;;;6.00;99.90;;;;;;5093475;28;20050;-84
2023/04/26 04:38:13;;;;;;;6.75;1.40;;;6.00;99.90;;;;;;5091925;28;20046;-83
2023/04/26 04:40:38;;;;;;;4.70;1.63;;;6.10;99.90;;;;;;5093211;28;20076;-85
2023/04/26 04:43:04;;;;;;;6.88;1.85;;;6.10;99.90;;;;;;5093152;28;20036;-83
2023/04/26 04:45:30;;;;;;;8.48;1.48;;;6.20;99.90;;;;;;5093127;28;20047;-84
2023/04/26 04:47:55;;;;;;;6.78;1.40;;;6.20;99.90;;;;;;5093156;28;20471;-84
2023/04/26 04:50:22;;;;;;;5.40;1.45;;;6.20;99.90;;;;;;5091774;28;20094;-84
2023/04/26 04:52:48;;;;;;;6.13;1.60;;;6.30;99.90;;;;;;5093264;28;20131;-84
2023/04/26 04:55:13;;;;;;;10.20;1.83;;;6.40;99.90;;;;;;5096247;28;20083;-84
2023/04/26 04:57:39;;;;;;;5.57;1.40;;;6.40;99.90;;;;;;5097415;28;20046;-84
2023/04/26 05:00:11;;;;;;;6.75;1.50;;;6.40;99.90;;;;;;5097477;28;20047;-84
2023/04/26 05:02:37;;;;;;;8.15;1.58;;;6.50;99.90;;;;;;5096296;28;20048;-84
2023/04/26 05:05:03;;;;;;;3.92;1.45;;;6.50;99.90;;;;;;5096082;28;20453;-84
2023/04/26 05:07:33;;;;;;;6.63;1.45;;;6.60;99.90;;;;;;5097251;28;20118;-84
2023/04/26 05:09:59;;;;;;;4.75;2.00;;;6.60;99.90;;;;;;5097238;28;20040;-84
2023/04/26 05:12:25;;;;;;;4.72;1.35;;;6.60;99.90;;;;;;5097278;28;20063;-84
2023/04/26 05:14:51;;;;;;;3.30;1.30;;;6.50;99.90;;;;;;5097101;28;20094;-84
2023/04/26 05:17:17;;;;;;;3.53;1.15;;;6.50;99.90;;;;;;5097236;28;20511;-84
2023/04/26 05:19:42;;;;;;;3.35;1.40;;;6.40;99.90;;;;;;5097031;28;20048;-84
2023/04/26 05:22:08;;;;;;;4.78;1.73;;;6.40;99.90;;;;;;5095923;28;20483;-83
2023/04/26 05:24:38;;;;;;;4.97;1.50;;;6.40;99.90;;;;;;5096567;28;20388;-84
2023/04/26 05:27:04;;;;;;;9.15;1.40;;;6.40;99.90;;;;;;5097463;28;20495;-84
2023/04/26 05:29:30;;;;;;;4.00;1.38;;;6.40;99.90;;;;;;5096621;28;20051;-84
2023/04/26 05:31:56;;;;;;;4.25;1.40;;;6.40;99.90;;;;;;5095478;28;20048;-84
2023/04/26 05:34:22;;;;;;;11.77;2.15;;;6.50;99.90;;;;;;5095270;28;20476;-84
2023/04/26 05:36:48;;;;;;;7.20;1.70;;;6.50;99.90;;;;;;5097030;28;20079;-84
2023/04/26 05:39:14;;;;;;;7.70;2.53;;;6.50;99.90;;;;;;5096703;28;20068;-84
2023/04/26 05:41:40;;;;;;;4.72;1.48;;;6.40;99.90;;;;;;5096649;28;20542;-84
2023/04/26 05:44:06;;;;;;;5.32;1.50;;;6.30;99.90;;;;;;5096769;28;20039;-84
2023/04/26 05:46:32;;;;;;;12.13;1.60;;;6.30;99.90;;;;;;5095012;28;20044;-84
2023/04/26 05:48:57;;;;;;;15.07;1.70;;;6.40;99.90;;;;;;5096399;28;20047;-85
2023/04/26 05:51:23;;;;;;;6.57;1.92;;;6.40;99.90;;;;;;5096101;28;20052;-84
2023/04/26 05:53:48;;;;;;;7.35;1.90;;;6.50;99.90;;;;;;5095043;28;20048;-84
2023/04/26 05:56:14;;;;;;;10.20;2.88;;;6.60;99.90;;;;;;5096049;28;20123;-84
2023/04/26 05:58:40;;;;;;;6.47;1.30;;;6.60;99.90;;;;;;5096604;28;20502;-84
2023/04/26 06:01:06;;;;;;;8.13;2.42;;;6.60;99.90;;;;;;5094841;28;20525;-84
2023/04/26 06:03:31;;;;;;;6.95;1.55;;;6.70;99.90;;;;;;5096325;28;20047;-84
2023/04/26 06:05:58;;;;;;;6.65;1.60;;;6.80;99.90;;;;;;5095062;28;20438;-84
2023/04/26 06:08:23;;;;;;;3.83;1.27;;;7.00;99.90;;;;;;5096294;28;20036;-85
2023/04/26 06:10:49;;;;;;;4.75;1.45;;;6.90;99.90;;;;;;5094607;28;20047;-85
2023/04/26 06:13:15;;;;;;;4.28;1.27;;;6.80;99.90;;;;;;5094737;28;20097;-84
2023/04/26 06:15:41;;;;;;;5.72;1.63;;;6.80;99.90;;;;;;5096047;28;20039;-84
2023/04/26 06:18:07;;;;;;;8.75;1.90;;;6.80;99.90;;;;;;5095831;28;20040;-84
2023/04/26 06:20:33;;;;;;;7.47;2.70;;;6.80;99.90;;;;;;5095943;28;20109;-84
2023/04/26 06:22:58;;;;;;;5.60;1.65;;;6.90;99.90;;;;;;5094466;28;20056;-83
2023/04/26 06:25:24;;;;;;;6.28;1.92;;;7.00;99.90;;;;;;5095660;28;20044;-83
2023/04/26 06:27:50;;;;;;;7.50;1.95;;;7.30;99.90;;;;;;5095678;28;20040;-84
2023/04/26 06:30:16;;;;;;;12.40;1.70;;;7.40;99.90;;;;;;5095817;28;20044;-84
2023/04/26 06:32:42;;;;;;;4.93;1.55;;;7.60;99.90;;;;;;5095340;28;20047;-86
2023/04/26 06:35:08;;;;;;;4.13;1.95;;;7.80;99.90;;;;;;5095767;28;20185;-85
2023/04/26 06:37:33;;;;;;;9.95;2.05;;;7.90;99.90;;;;;;5094339;28;20044;-85
2023/04/26 06:40:00;;;;;;;7.50;1.75;;;8.00;99.90;;;;;;5086614;28;20399;-86
2023/04/26 06:42:26;;;;;;;7.57;2.00;;;8.10;99.90;;;;;;5074837;28;20510;-87
2023/04/26 06:44:52;;;;;;;9.50;2.13;;;7.90;99.90;;;;;;5073928;28;20044;-85
2023/04/26 06:47:17;;;;;;;7.63;2.97;;;7.80;99.90;;;;;;5074538;28;20511;-84
2023/04/26 06:49:43;;;;;;;6.57;1.85;;;7.70;99.90;;;;;;5074955;28;20080;-85
2023/04/26 06:52:08;;;;;;;9.80;2.00;;;7.80;99.90;;;;;;5074678;28;20123;-84
2023/04/26 06:54:34;;;;;;;8.63;2.22;;;8.00;99.90;;;;;;5074826;28;20085;-87
2023/04/26 06:57:00;;;;;;;4.72;1.42;;;8.10;99.90;;;;;;5073297;28;20079;-85
2023/04/26 06:59:26;;;;;;;4.70;1.67;;;8.20;99.90;;;;;;5074729;28;20045;-85
2023/04/26 07:01:51;;;;;;;8.10;1.92;;;8.30;99.90;;;;;;5073277;28;20082;-80
2023/04/26 07:04:19;;;;;;;8.00;1.70;;;8.20;99.90;;;;;;5074290;28;20101;-81
2023/04/26 07:06:45;;;;;;;11.32;3.15;;;8.10;99.90;;;;;;5074595;28;20488;-83
2023/04/26 07:09:12;;;;;;;6.43;1.35;;;8.30;99.90;;;;;;5074167;28;20045;-84
2023/04/26 07:11:38;;;;;;;7.45;1.58;;;8.50;99.90;;;;;;5074412;28;20110;-84
2023/04/26 07:14:04;;;;;;;4.57;1.17;;;8.70;99.90;;;;;;5074286;28;20045;-87
2023/04/26 07:16:30;;;;;;;6.70;1.77;;;8.90;99.90;;;;;;5074028;28;20403;-86
2023/04/26 07:18:59;;;;;;;7.72;2.50;;;9.00;99.90;;;;;;5072870;28;20047;-86
2023/04/26 07:21:25;;;;;;;6.63;1.48;;;9.10;99.90;;;;;;5074418;28;20040;-88
2023/04/26 07:23:55;;;;;;;8.43;2.80;;;9.20;99.90;;;;;;5073720;28;20127;-84
2023/04/26 07:26:22;;;;;;;8.02;1.80;;;9.20;99.90;;;;;;5074148;28;20042;-86
2023/04/26 07:28:47;;;;;;;4.43;1.90;;;9.30;99.90;;;;;;5072690;28;20052;-86
2023/04/26 07:31:13;;;;;;;11.35;2.05;;;9.40;99.90;;;;;;5072631;28;20036;-86
2023/04/26 07:33:40;;;;;;;6.93;1.50;;;9.40;99.90;;;;;;5073908;28;20072;-87
2023/04/26 07:36:06;;;;;;;6.68;1.70;;;9.50;99.90;;;;;;5074155;28;20088;-86
2023/04/26 07:38:31;;;;;;;5.82;1.85;;;9.50;99.90;;;;;;5073977;28;20041;-85
2023/04/26 07:40:57;;;;;;;7.93;1.60;;;9.40;99.90;;;;;;5072641;28;20147;-86
2023/04/26 07:43:23;;;;;;;6.63;1.88;;;9.30;99.90;;;;;;5074106;28;20076;-85
2023/04/26 07:45:48;;;;;;;4.97;1.42;;;9.00;99.90;;;;;;5073771;28;20377;-85
2023/04/26 07:48:15;;;;;;;3.58;1.40;;;8.90;99.90;;;;;;5074049;28;20036;-84
2023/04/26 07:50:40;;;;;;;5.20;1.65;;;9.00;99.90;;;;;;5073910;28;20087;-85
2023/04/26 07:53:06;;;;;;;5.13;1.52;;;9.10;99.90;;;;;;5073926;28;20076;-85
2023/04/26 07:55:32;;;;;;;10.05;1.60;;;9.10;99.90;;;;;;5072444;28;20123;-85
2023/04/26 07:57:57;;;;;;;4.50;1.10;;;9.30;99.90;;;;;;5072416;28;20091;-85
2023/04/26 08:00:23;;;;;;;4.00;0.60;;;9.40;99.90;;;;;;5072937;28;20044;-85
2023/04/26 08:02:49;;;;;;;6.53;1.13;;;9.50;99.90;;;;;;5072705;28;20076;-85
2023/04/26 08:05:15;;;;;;;7.82;0.95;;;9.50;99.90;;;;;;5073472;28;20048;-85
2023/04/26 08:07:42;;;;;;;3.78;0.98;;;9.50;99.90;;;;;;5073790;28;20036;-86
2023/04/26 08:10:08;;;;;;;6.45;1.27;;;9.60;99.90;;;;;;5073473;28;20055;-86
2023/04/26 08:12:37;;;;;;;7.25;1.60;;;9.60;99.90;;;;;;5073478;28;20446;-86
2023/04/26 08:15:04;;;;;;;8.55;1.40;;;9.70;99.90;;;;;;5073668;28;20098;-86
2023/04/26 08:17:30;;;;;;;4.03;1.10;;;9.90;99.90;;;;;;5073780;28;20049;-86
2023/04/26 08:19:57;;;;;;;5.13;1.20;;;10.10;99.90;;;;;;5106099;28;20080;-84
2023/04/26 08:22:23;;;;;;;5.28;1.38;;;10.30;99.90;;;;;;5072511;28;20127;-84
2023/04/26 08:24:50;;;;;;;7.78;1.40;;;10.20;99.90;;;;;;5073220;28;20064;-83
2023/04/26 08:27:16;;;;;;;3.92;0.80;;;10.50;99.90;;;;;;5073077;28;20044;-84
2023/04/26 08:29:42;;;;;;;4.18;0.75;;;10.60;99.90;;;;;;5071480;28;20055;-84
2023/04/26 08:32:08;;;;;;;6.20;0.82;;;10.70;99.90;;;;;;5073417;28;20052;-87
2023/04/26 08:34:33;;;;;;;3.53;0.82;;;10.60;99.90;;;;;;5072370;28;20388;-88
2023/04/26 08:36:59;;;;;;;5.60;1.08;;;10.70;99.90;;;;;;5073494;28;20476;-87
2023/04/26 08:39:25;;;;;;;4.07;1.38;;;10.80;99.90;;;;;;5072638;28;20044;-87
2023/04/26 08:41:56;;;;;;;4.22;0.82;;;10.80;99.90;;;;;;5072187;28;20043;-86
2023/04/26 08:44:25;;;;;;;4.90;0.75;;;10.80;99.90;;;;;;5073593;28;20044;-87
2023/04/26 08:47:12;;;;;;;4.40;0.98;;;10.60;99.90;;;;;;5073398;28;20072;-84
2023/04/26 08:49:51;;;;;;;4.63;1.08;;;10.60;99.90;;;;;;5072211;28;20079;-84
2023/04/26 08:52:22;;;;;;;7.35;0.98;;;10.50;99.90;;;;;;5071956;28;20072;-85
2023/04/26 08:54:50;;;;;;;4.57;1.50;;;10.30;99.90;;;;;;5073616;28;20413;-84
2023/04/26 08:57:17;;;;;;;4.95;1.55;;;10.20;99.90;;;;;;5073204;28;20063;-84
2023/04/26 08:59:43;;;;;;;4.18;0.80;;;10.20;99.90;;;;;;5071923;28;20040;-84
2023/04/26 09:02:17;;;;;;;3.78;1.00;;;10.20;99.90;;;;;;5071996;28;20052;-84
2023/04/26 09:04:44;;;;;;;6.65;1.23;;;10.20;99.90;;;;;;5073360;28;20044;-84
2023/04/26 09:07:17;;;;;;;5.53;1.08;;;10.40;99.90;;;;;;5073102;28;20052;-87
2023/04/26 09:09:46;;;;;;;8.07;0.90;;;10.50;99.90;;;;;;5071783;28;20048;-84
2023/04/26 09:12:12;;;;;;;4.47;1.50;;;10.70;99.90;;;;;;5073090;28;20055;-83
2023/04/26 09:14:38;;;;;;;5.63;0.95;;;10.80;99.90;;;;;;5073144;28;20116;-83
2023/04/26 09:17:03;;;;;;;2.92;0.70;;;11.10;99.90;;;;;;5072737;28;20045;-83
2023/04/26 09:19:41;;;;;;;6.22;1.15;;;11.10;99.90;;;;;;5072930;28;20090;-84
2023/04/26 09:22:07;;;;;;;3.22;0.70;;;11.00;99.90;;;;;;5073021;28;20041;-84
2023/04/26 09:24:49;;;;;;;3.63;1.02;;;10.90;99.90;;;;;;5072810;28;20052;-84
2023/04/26 09:27:15;;;;;;;7.55;1.20;;;10.90;99.90;;;;;;5072927;28;20045;-84
2023/04/26 09:29:57;;;;;;;3.33;1.40;;;11.00;99.90;;;;;;5072947;28;20098;-84
2023/04/26 09:32:23;;;;;;;5.20;1.20;;;11.20;99.90;;;;;;5071643;28;20083;-86
2023/04/26 09:34:49;;;;;;;3.80;1.08;;;11.00;99.90;;;;;;5072972;28;20040;-83
2023/04/26 09:37:15;;;;;;;5.63;1.20;;;10.80;99.90;;;;;;5072875;28;20036;-86
2023/04/26 09:39:41;;;;;;;6.65;1.25;;;11.00;99.90;;;;;;5072681;28;20041;-84
2023/04/26 09:42:08;;;;;;;5.05;1.10;;;11.10;99.90;;;;;;5076545;28;20113;-86
2023/04/26 09:44:34;;;;;;;4.43;1.13;;;10.80;99.90;;;;;;5076022;28;20044;-85
2023/04/26 09:47:05;;;;;;;7.18;2.75;;;10.70;99.90;;;;;;5076444;28;20119;-85
2023/04/26 09:49:43;;;;;;;6.43;1.00;;;10.50;99.90;;;;;;5076206;28;20036;-83
2023/04/26 09:52:09;;;;;;;2.92;1.05;;;10.20;99.90;;;;;;5076343;28;20403;-85
2023/04/26 09:54:50;;;;;;;2.28;0.82;;;10.10;99.90;;;;;;5074874;28;20060;-85
2023/04/26 09:57:18;;;;;;;2.75;1.10;;;10.00;99.90;;;;;;5076303;28;20044;-84
2023/04/26 09:59:46;;;;;;;3.15;0.85;;;9.90;99.90;;;;;;5076297;28;20040;-84
2023/04/26 10:02:19;;;;;;;3.15;0.68;;;9.70;99.90;;;;;;5074984;28;20064;-84
2023/04/26 10:04:47;;;;;;;3.00;0.90;;;9.70;99.90;;;;;;5076517;28;20048;-85
2023/04/26 10:07:14;;;;;;;4.13;0.80;;;9.70;99.90;;;;;;5076065;28;20438;-83
2023/04/26 10:09:40;;;;;;;3.25;0.93;;;9.70;99.90;;;;;;5076004;28;20041;-83
2023/04/26 10:12:09;;;;;;;4.93;1.25;;;9.70;99.90;;;;;;5075708;28;20510;-83
2023/04/26 10:14:35;;;;;;;6.25;1.08;;;9.70;99.90;;;;;;5076032;28;20040;-85
2023/04/26 10:17:03;;;;;;;5.43;1.10;;;9.70;99.90;;;;;;5075864;28;20048;-85
2023/04/26 10:19:30;;;;;;;2.63;1.00;;;9.70;99.90;;;;;;5075966;28;20044;-84
2023/04/26 10:22:02;;;;;;;3.45;0.90;;;9.80;99.90;;;;;;5075523;28;20496;-84
2023/04/26 10:24:31;;;;;;;4.82;1.35;;;9.90;99.90;;;;;;5075536;28;20106;-84
2023/04/26 10:26:56;;;;;;;4.97;0.95;;;9.90;99.90;;;;;;5075839;28;20048;-84
2023/04/26 10:29:24;;;;;;;3.97;0.93;;;10.10;99.90;;;;;;5075573;28;20039;-84
2023/04/26 10:32:05;;;;;;;3.50;1.40;;;10.10;99.90;;;;;;5074177;28;20402;-84
2023/04/26 10:34:33;;;;;;;3.85;0.93;;;10.20;99.90;;;;;;5074080;28;20049;-84
2023/04/26 10:37:08;;;;;;;4.22;1.10;;;10.20;99.90;;;;;;5075616;28;20051;-84
2023/04/26 10:39:35;;;;;;;6.63;1.58;;;10.20;99.90;;;;;;5074107;28;20037;-84
2023/04/26 10:42:23;;;;;;;4.75;1.00;;;10.30;99.90;;;;;;5075565;28;20056;-84
2023/04/26 10:44:50;;;;;;;6.35;1.45;;;10.20;99.90;;;;;;5075197;28;20087;-84
2023/04/26 10:47:33;;;;;;;4.35;0.98;;;10.20;99.90;;;;;;5074146;28;20052;-84
2023/04/26 10:50:07;;;;;;;5.18;1.33;;;10.30;99.90;;;;;;5075209;28;20055;-84
2023/04/26 10:52:35;;;;;;;7.45;1.40;;;10.30;99.90;;;;;;5074603;28;20041;-85
2023/04/26 10:55:01;;;;;;;3.60;1.00;;;10.40;99.90;;;;;;5073796;28;20495;-84
2023/04/26 10:57:47;;;;;;;5.10;0.80;;;10.30;99.90;;;;;;5075098;28;20060;-84
2023/04/26 11:00:27;;;;;;;8.45;1.08;;;10.30;99.90;;;;;;5075037;28;20044;-84
2023/04/26 11:03:09;;;;;;;6.95;1.00;;;10.20;99.90;;;;;;5074988;28;20047;-84
2023/04/26 11:05:52;;;;;;;5.75;1.80;;;10.20;99.90;;;;;;5073558;28;20080;-84
2023/04/26 11:08:25;;;;;;;3.55;1.15;;;10.40;99.90;;;;;;5075122;28;20044;-84
2023/04/26 11:11:03;;;;;;;5.80;1.10;;;10.40;99.90;;;;;;5074867;28;20064;-84
2023/04/26 11:13:34;;;;;;;6.05;1.20;;;10.50;99.90;;;;;;5073609;28;20102;-84
2023/04/26 11:16:11;;;;;;;11.10;1.85;;;10.50;99.90;;;;;;5074741;28;20107;-85
2023/04/26 11:18:42;;;;;;;7.18;1.20;;;10.50;99.90;;;;;;5074902;28;20097;-85
2023/04/26 11:21:08;;;;;;;3.20;0.85;;;10.80;99.90;;;;;;5074721;28;20144;-85
2023/04/26 11:23:35;;;;;;;4.75;1.00;;;10.90;99.90;;;;;;5074411;28;20060;-84
2023/04/26 11:26:10;;;;;;;5.78;1.00;;;11.10;99.90;;;;;;5073161;28;20052;-85
2023/04/26 11:28:37;;;;;;;6.18;1.13;;;11.20;99.90;;;;;;5074263;28;20513;-84
2023/04/26 11:31:05;;;;;;;4.78;1.02;;;11.20;99.90;;;;;;5074489;28;20041;-84
2023/04/26 11:33:33;;;;;;;5.15;1.55;;;11.50;99.90;;;;;;5074260;28;20507;-84
2023/04/26 11:35:59;;;;;;;5.95;1.45;;;11.80;99.90;;;;;;5074421;28;20091;-84
2023/04/26 11:38:26;;;;;;;4.80;1.15;;;11.80;99.90;;;;;;5074160;28;20045;-84
2023/04/26 11:41:03;;;;;;;5.13;1.00;;;12.10;99.90;;;;;;5074248;28;20044;-84
2023/04/26 11:43:36;;;;;;;4.50;1.00;;;12.30;99.90;;;;;;5074207;28;20040;-84
2023/04/26 11:46:03;;;;;;;6.32;0.90;;;12.10;99.90;;;;;;5074260;28;20040;-84
2023/04/26 11:48:31;;;;;;;8.32;1.50;;;12.00;99.90;;;;;;5073960;28;20048;-84
2023/04/26 11:50:58;;;;;;;3.70;1.05;;;12.00;99.90;;;;;;5073990;28;20105;-84
2023/04/26 11:53:24;;;;;;;3.15;0.90;;;12.00;99.90;;;;;;5074126;28;20099;-84
2023/04/26 11:55:51;;;;;;;2.63;0.90;;;12.10;99.90;;;;;;5073671;28;20404;-84
2023/04/26 11:58:16;;;;;;;4.60;1.00;;;11.90;99.90;;;;;;5074093;28;20044;-84
2023/04/26 12:00:59;;;;;;;9.20;1.30;;;11.70;99.90;;;;;;5073937;28;20044;-84
2023/04/26 12:03:36;;;;;;;6.97;1.27;;;11.70;99.90;;;;;;5073162;28;20056;-84
2023/04/26 12:06:03;;;;;;;5.60;0.95;;;11.60;99.90;;;;;;5072408;28;20040;-84
2023/04/26 12:08:30;;;;;;;4.35;0.95;;;11.90;99.90;;;;;;5073949;28;20123;-85
2023/04/26 12:11:01;;;;;;;9.02;1.30;;;11.90;99.90;;;;;;5073811;28;20049;-85
2023/04/26 12:13:28;;;;;;;6.38;1.02;;;11.80;99.90;;;;;;5072635;28;20102;-84
2023/04/26 12:15:54;;;;;;;6.60;1.63;;;11.80;99.90;;;;;;5073844;28;20045;-84
2023/04/26 12:18:20;;;;;;;3.17;1.00;;;11.80;99.90;;;;;;5072315;28;20074;-84
2023/04/26 12:20:45;;;;;;;5.05;1.10;;;11.60;99.90;;;;;;5073739;28;20044;-84
2023/04/26 12:23:16;;;;;;;4.13;1.05;;;11.50;99.90;;;;;;5073508;28;20101;-84
2023/04/26 12:25:56;;;;;;;4.13;1.30;;;11.40;99.90;;;;;;5073983;28;20072;-84
2023/04/26 12:28:22;;;;;;;6.63;1.25;;;11.50;99.90;;;;;;5072270;28;20075;-84
2023/04/26 12:30:49;;;;;;;4.28;1.20;;;11.50;99.90;;;;;;5073339;28;20090;-84
2023/04/26 12:33:15;;;;;;;4.65;1.35;;;11.50;99.90;;;;;;5073386;28;20048;-84
2023/04/26 12:35:41;;;;;;;8.52;1.52;;;11.50;99.90;;;;;;5072150;28;20037;-84
2023/04/26 12:38:06;;;;;;;7.40;1.60;;;11.50;99.90;;;;;;5073338;28;20040;-84
2023/04/26 12:40:32;;;;;;;4.85;1.33;;;11.40;99.90;;;;;;5073329;28;20085;-84
2023/04/26 12:42:58;;;;;;;5.68;1.48;;;11.40;99.90;;;;;;5072362;28;20055;-84
2023/04/26 12:45:27;;;;;;;4.63;1.40;;;11.40;99.90;;;;;;5073367;28;20040;-84
2023/04/26 12:47:53;;;;;;;4.68;1.15;;;11.40;99.90;;;;;;5073348;28;20037;-84
2023/04/26 12:50:19;;;;;;;5.53;2.00;;;11.40;99.90;;;;;;5071834;28;20056;-84
2023/04/26 12:52:45;;;;;;;7.60;1.40;;;11.40;99.90;;;;;;5072155;28;20123;-84